Time;durP1;ratioP1;P1;durP2;ratioP2;P2;SDS_P1;SDS_P2;PMS_P1;PMS_P2;Temp;Humidity;BMP_temperature;BMP_pressure;BME280_temperature;BME280_humidity;BME280_pressure;Samples;Min_cycle;Max_cycle;Signal;HPM_P1;HPM_P2
2023/12/18 06:01:14;;;;;;;29.97;15.80;;;;;;;;;;6094101;22;20491;-71
2023/12/18 06:03:40;;;;;;;30.53;15.43;;;;;;;;;;4975527;28;20423;-72
2023/12/18 06:06:06;;;;;;;28.80;15.73;;;;;;;;;;4995904;28;20501;-71
2023/12/18 06:08:32;;;;;;;33.30;17.00;;;;;;;;;;4996165;28;20749;-69
2023/12/18 06:10:58;;;;;;;45.53;18.53;;;;;;;;;;4995841;28;20507;-69
2023/12/18 06:13:24;;;;;;;29.37;14.47;;;;;;;;;;4995751;28;20901;-72
2023/12/18 06:15:50;;;;;;;32.60;16.23;;;;;;;;;;5018437;23;20501;-72
2023/12/18 06:18:16;;;;;;;35.77;17.53;;;;;;;;;;4995382;28;20403;-72
2023/12/18 06:20:43;;;;;;;32.97;17.00;;;;;;;;;;4994987;28;20816;-72
2023/12/18 06:23:09;;;;;;;37.83;15.93;;;;;;;;;;4995474;28;20529;-72
2023/12/18 06:25:34;;;;;;;33.73;16.27;;;;;;;;;;4995100;28;20418;-72
2023/12/18 06:28:00;;;;;;;36.30;16.43;;;;;;;;;;4995076;28;20774;-72
2023/12/18 06:30:26;;;;;;;35.03;17.00;;;;;;;;;;4994528;28;20823;-72
2023/12/18 06:32:52;;;;;;;30.27;15.40;;;;;;;;;;4994927;28;20801;-72
2023/12/18 06:35:18;;;;;;;29.83;16.10;;;;;;;;;;4995070;28;20496;-72
2023/12/18 06:37:45;;;;;;;41.73;18.53;;;;;;;;;;4994899;28;20438;-72
2023/12/18 06:40:11;;;;;;;34.93;18.47;;;;;;;;;;4977041;28;20836;-72
2023/12/18 06:42:37;;;;;;;45.70;18.40;;;;;;;;;;4994906;28;20435;-71
2023/12/18 06:45:03;;;;;;;32.40;16.57;;;;;;;;;;4994717;28;20954;-71
2023/12/18 06:47:30;;;;;;;33.93;16.27;;;;;;;;;;4994832;28;20419;-71
2023/12/18 06:49:56;;;;;;;30.10;17.70;;;;;;;;;;4994804;28;20465;-71
2023/12/18 06:52:22;;;;;;;35.70;18.57;;;;;;;;;;4994430;28;20411;-71
2023/12/18 06:54:48;;;;;;;30.70;17.90;;;;;;;;;;4994440;28;20508;-71
2023/12/18 06:57:14;;;;;;;38.30;16.70;;;;;;;;;;4994812;28;20770;-71
2023/12/18 06:59:40;;;;;;;35.60;18.20;;;;;;;;;;4994611;28;21113;-71
2023/12/18 07:02:06;;;;;;;41.37;18.60;;;;;;;;;;4994319;28;20418;-71
2023/12/18 07:04:32;;;;;;;38.63;18.33;;;;;;;;;;4994358;28;20450;-71
2023/12/18 07:06:59;;;;;;;32.50;16.57;;;;;;;;;;4994338;28;20419;-71
2023/12/18 07:09:25;;;;;;;39.23;17.60;;;;;;;;;;4976741;28;20955;-71
2023/12/18 07:11:51;;;;;;;38.23;18.40;;;;;;;;;;4994210;28;20423;-71
2023/12/18 07:14:18;;;;;;;30.70;18.10;;;;;;;;;;4993925;28;20466;-71
2023/12/18 07:16:44;;;;;;;45.10;17.83;;;;;;;;;;4994029;28;20470;-71
2023/12/18 07:19:10;;;;;;;31.97;16.50;;;;;;;;;;4994492;28;20754;-72
2023/12/18 07:21:36;;;;;;;32.23;17.23;;;;;;;;;;4976374;28;20423;-71
2023/12/18 07:24:02;;;;;;;28.43;16.70;;;;;;;;;;4994085;28;20485;-71
2023/12/18 07:26:28;;;;;;;32.17;17.77;;;;;;;;;;4994099;28;20622;-71
2023/12/18 07:28:54;;;;;;;34.03;15.93;;;;;;;;;;4994021;28;20429;-71
2023/12/18 07:31:19;;;;;;;38.13;16.73;;;;;;;;;;4993925;28;20468;-71
2023/12/18 07:33:45;;;;;;;35.10;17.47;;;;;;;;;;4993887;28;20463;-71
2023/12/18 07:36:11;;;;;;;41.87;16.67;;;;;;;;;;4976167;28;20477;-71
2023/12/18 07:38:37;;;;;;;29.67;15.30;;;;;;;;;;4993796;28;20418;-71
2023/12/18 07:41:04;;;;;;;36.27;16.47;;;;;;;;;;4993588;28;20906;-71
2023/12/18 07:43:30;;;;;;;26.80;15.73;;;;;;;;;;4993758;28;20423;-71
2023/12/18 07:45:56;;;;;;;32.30;16.80;;;;;;;;;;4993508;28;20430;-71
2023/12/18 07:48:24;;;;;;;32.20;18.00;;;;;;;;;;4993800;28;20499;-72
2023/12/18 07:50:50;;;;;;;35.23;17.00;;;;;;;;;;4993491;28;20735;-72
2023/12/18 07:53:17;;;;;;;31.33;17.10;;;;;;;;;;4995166;28;20415;-72
2023/12/18 07:55:43;;;;;;;29.90;15.67;;;;;;;;;;4976205;28;20466;-72
2023/12/18 07:58:09;;;;;;;27.90;17.43;;;;;;;;;;4993494;28;20502;-72
2023/12/18 08:00:35;;;;;;;40.10;17.90;;;;;;;;;;4993478;28;20505;-71
2023/12/18 08:03:04;;;;;;;37.70;18.13;;;;;;;;;;4993432;28;20415;-71
2023/12/18 08:05:30;;;;;;;46.10;16.67;;;;;;;;;;4993182;28;20431;-71
2023/12/18 08:07:56;;;;;;;36.20;16.50;;;;;;;;;;4975827;28;20430;-71
2023/12/18 08:10:22;;;;;;;35.47;17.37;;;;;;;;;;4993672;28;20898;-71
2023/12/18 08:12:49;;;;;;;23.50;14.80;;;;;;;;;;4993776;28;20473;-72
2023/12/18 08:15:15;;;;;;;33.90;17.30;;;;;;;;;;4992096;28;20481;-73
2023/12/18 08:17:41;;;;;;;29.80;16.77;;;;;;;;;;4993229;28;20407;-73
2023/12/18 08:20:07;;;;;;;33.67;17.30;;;;;;;;;;4995485;28;20415;-72
2023/12/18 08:22:34;;;;;;;31.03;16.00;;;;;;;;;;4983838;28;20423;-72
2023/12/18 08:25:01;;;;;;;24.67;13.77;;;;;;;;;;5005777;28;20452;-71
2023/12/18 08:27:32;;;;;;;31.33;13.93;;;;;;;;;;4994336;28;20505;-73
2023/12/18 08:29:58;;;;;;;28.80;15.07;;;;;;;;;;4993138;28;20477;-74
2023/12/18 08:32:24;;;;;;;25.50;14.17;;;;;;;;;;4992994;28;20831;-74
2023/12/18 08:34:50;;;;;;;20.80;12.50;;;;;;;;;;4974979;28;20462;-73
2023/12/18 08:37:16;;;;;;;19.13;11.40;;;;;;;;;;4992825;28;20408;-73
2023/12/18 08:39:42;;;;;;;22.83;11.43;;;;;;;;;;4992550;28;20505;-73
2023/12/18 08:42:08;;;;;;;26.47;12.77;;;;;;;;;;4992375;28;20910;-73
2023/12/18 08:44:34;;;;;;;26.60;13.27;;;;;;;;;;4992421;28;20497;-73
2023/12/18 08:47:00;;;;;;;21.17;12.43;;;;;;;;;;4992558;28;20462;-73
2023/12/18 08:49:26;;;;;;;24.20;13.03;;;;;;;;;;4992541;28;20918;-73
2023/12/18 08:51:52;;;;;;;23.10;12.93;;;;;;;;;;4992380;28;20422;-73
2023/12/18 08:54:18;;;;;;;22.00;13.47;;;;;;;;;;4992189;28;20471;-73
2023/12/18 08:56:44;;;;;;;37.13;12.80;;;;;;;;;;4992722;28;20865;-73
2023/12/18 08:59:11;;;;;;;20.80;11.57;;;;;;;;;;4992367;28;20422;-73
2023/12/18 09:01:37;;;;;;;22.57;12.63;;;;;;;;;;4992253;28;20418;-73
2023/12/18 09:04:04;;;;;;;26.33;14.47;;;;;;;;;;4992015;28;20429;-70
2023/12/18 09:06:30;;;;;;;22.93;12.60;;;;;;;;;;4992606;28;20966;-73
2023/12/18 09:08:56;;;;;;;29.53;13.20;;;;;;;;;;4992531;28;20410;-71
2023/12/18 09:11:22;;;;;;;30.83;12.80;;;;;;;;;;4992553;28;20411;-74
2023/12/18 09:13:48;;;;;;;27.27;13.40;;;;;;;;;;4992545;28;20461;-74
2023/12/18 09:16:14;;;;;;;38.10;14.07;;;;;;;;;;4992523;28;20446;-74
2023/12/18 09:18:40;;;;;;;25.60;13.47;;;;;;;;;;4987278;28;20507;-74
2023/12/18 09:21:06;;;;;;;20.80;13.00;;;;;;;;;;4973415;28;20412;-73
2023/12/18 09:23:31;;;;;;;26.43;14.10;;;;;;;;;;4979962;28;20423;-74
2023/12/18 09:25:57;;;;;;;32.33;13.63;;;;;;;;;;4987927;28;20447;-73
2023/12/18 09:28:23;;;;;;;23.33;13.23;;;;;;;;;;4968090;28;20419;-74
2023/12/18 09:30:49;;;;;;;28.20;14.33;;;;;;;;;;4991884;28;20422;-73
2023/12/18 09:33:15;;;;;;;21.77;10.87;;;;;;;;;;4992162;28;20411;-73
2023/12/18 09:35:42;;;;;;;21.00;11.13;;;;;;;;;;4991980;28;20494;-71
2023/12/18 09:38:08;;;;;;;30.13;11.97;;;;;;;;;;4986595;28;20910;-70
2023/12/18 09:40:34;;;;;;;20.63;12.17;;;;;;;;;;4991130;28;20421;-70
2023/12/18 09:43:01;;;;;;;18.97;11.67;;;;;;;;;;4994360;28;20485;-77
2023/12/18 09:45:27;;;;;;;20.17;11.00;;;;;;;;;;4990296;28;20943;-75
2023/12/18 09:47:53;;;;;;;20.47;10.80;;;;;;;;;;4964374;28;20425;-74
2023/12/18 09:50:19;;;;;;;18.43;11.00;;;;;;;;;;4973357;28;20459;-74
2023/12/18 09:53:05;;;;;;;19.13;10.83;;;;;;;;;;4977564;28;20461;-72
2023/12/18 09:55:32;;;;;;;22.20;11.30;;;;;;;;;;4976177;28;20557;-74
2023/12/18 09:57:59;;;;;;;20.33;11.60;;;;;;;;;;4981796;28;20424;-74
2023/12/18 10:00:26;;;;;;;24.40;10.87;;;;;;;;;;5009180;28;20419;-74
2023/12/18 10:02:52;;;;;;;22.07;12.10;;;;;;;;;;4991608;28;20454;-74
2023/12/18 10:05:18;;;;;;;20.20;10.23;;;;;;;;;;4992412;28;20579;-73
2023/12/18 10:07:45;;;;;;;30.33;11.37;;;;;;;;;;4987568;28;20942;-76
2023/12/18 10:10:11;;;;;;;18.03;9.33;;;;;;;;;;4994788;28;20574;-75
2023/12/18 10:12:40;;;;;;;21.77;11.07;;;;;;;;;;4995943;28;20451;-76
2023/12/18 10:15:11;;;;;;;28.73;13.03;;;;;;;;;;4978646;28;20516;-79
2023/12/18 10:17:38;;;;;;;19.77;10.93;;;;;;;;;;4996081;28;20473;-76
2023/12/18 10:20:05;;;;;;;19.20;10.33;;;;;;;;;;5001985;28;20421;-73
2023/12/18 10:22:32;;;;;;;20.13;10.73;;;;;;;;;;4984905;28;20474;-74
2023/12/18 10:24:58;;;;;;;21.10;10.60;;;;;;;;;;4990451;28;20809;-73
2023/12/18 10:27:24;;;;;;;19.90;11.27;;;;;;;;;;4991474;28;20435;-78
2023/12/18 10:29:51;;;;;;;29.50;10.43;;;;;;;;;;4976340;28;20432;-76
2023/12/18 10:32:17;;;;;;;24.27;11.17;;;;;;;;;;4977073;28;20515;-76
2023/12/18 10:34:44;;;;;;;25.67;10.27;;;;;;;;;;4995687;28;21044;-74
2023/12/18 10:37:10;;;;;;;17.50;10.33;;;;;;;;;;4977769;28;20422;-76
2023/12/18 10:39:38;;;;;;;24.13;11.40;;;;;;;;;;4987543;28;20419;-77
2023/12/18 10:42:08;;;;;;;24.97;12.77;;;;;;;;;;4994188;28;20926;-72
2023/12/18 10:44:35;;;;;;;27.83;12.70;;;;;;;;;;4991654;28;20449;-72
2023/12/18 10:47:02;;;;;;;27.20;13.40;;;;;;;;;;4969425;28;20804;-73
2023/12/18 10:49:30;;;;;;;22.03;12.77;;;;;;;;;;4993454;28;20502;-72
2023/12/18 10:51:57;;;;;;;22.60;11.63;;;;;;;;;;4994718;28;20503;-72
2023/12/18 10:54:24;;;;;;;28.10;12.33;;;;;;;;;;4994349;28;20465;-72
2023/12/18 10:56:51;;;;;;;29.10;11.70;;;;;;;;;;4994694;28;20415;-72
2023/12/18 10:59:18;;;;;;;23.60;13.17;;;;;;;;;;4994817;28;20414;-72
2023/12/18 11:01:45;;;;;;;16.60;9.67;;;;;;;;;;4995396;28;20411;-72
2023/12/18 11:04:12;;;;;;;30.43;12.33;;;;;;;;;;4994630;28;20494;-72
2023/12/18 11:06:39;;;;;;;28.37;10.73;;;;;;;;;;4994434;28;20786;-72
2023/12/18 11:09:05;;;;;;;18.47;10.90;;;;;;;;;;4994163;28;20415;-72
2023/12/18 11:11:32;;;;;;;23.50;10.40;;;;;;;;;;4994260;28;20778;-72
2023/12/18 11:14:12;;;;;;;29.27;11.27;;;;;;;;;;4994060;28;20462;-72
2023/12/18 11:17:00;;;;;;;15.50;10.03;;;;;;;;;;4994487;28;20858;-72
2023/12/18 11:19:44;;;;;;;22.77;11.50;;;;;;;;;;4994196;28;20433;-72
2023/12/18 11:22:10;;;;;;;23.93;11.20;;;;;;;;;;4993799;28;20402;-72
2023/12/18 11:24:37;;;;;;;17.50;9.03;;;;;;;;;;4976510;28;20426;-72
2023/12/18 11:27:05;;;;;;;15.37;9.00;;;;;;;;;;4993742;28;20470;-74
2023/12/18 11:29:35;;;;;;;18.10;8.73;;;;;;;;;;4994145;28;20466;-73
2023/12/18 11:32:02;;;;;;;13.13;9.23;;;;;;;;;;4993500;28;20415;-72
2023/12/18 11:34:28;;;;;;;19.47;10.00;;;;;;;;;;4993825;28;20470;-73
2023/12/18 11:36:54;;;;;;;20.20;9.77;;;;;;;;;;4993720;28;20818;-73
2023/12/18 11:39:23;;;;;;;18.17;10.30;;;;;;;;;;4993761;28;20414;-73
2023/12/18 11:41:49;;;;;;;18.33;10.20;;;;;;;;;;4993738;28;20418;-73
2023/12/18 11:44:15;;;;;;;18.33;11.30;;;;;;;;;;4975957;28;20427;-73
2023/12/18 11:46:44;;;;;;;22.80;11.03;;;;;;;;;;4993977;28;20917;-74
2023/12/18 11:49:10;;;;;;;17.00;10.63;;;;;;;;;;4993287;28;20485;-74
2023/12/18 11:51:40;;;;;;;21.00;9.87;;;;;;;;;;4993353;28;20411;-75
2023/12/18 11:54:06;;;;;;;21.50;12.70;;;;;;;;;;5000752;28;20447;-78
2023/12/18 11:56:42;;;;;;;23.37;10.80;;;;;;;;;;4980348;28;20481;-77
2023/12/18 11:59:09;;;;;;;17.43;10.50;;;;;;;;;;4993690;28;20423;-77
2023/12/18 12:01:50;;;;;;;28.33;13.07;;;;;;;;;;5069588;28;20967;-76
2023/12/18 12:04:16;;;;;;;19.43;11.47;;;;;;;;;;5069537;28;20427;-76
2023/12/18 12:06:42;;;;;;;26.00;12.17;;;;;;;;;;5069496;28;20415;-76
2023/12/18 12:09:09;;;;;;;28.30;12.30;;;;;;;;;;5068197;28;20794;-76
2023/12/18 12:11:36;;;;;;;24.80;12.90;;;;;;;;;;5069105;28;20767;-76
2023/12/18 12:14:02;;;;;;;25.23;12.07;;;;;;;;;;5069152;28;20403;-76
2023/12/18 12:16:28;;;;;;;19.93;10.97;;;;;;;;;;5062477;28;20469;-75
2023/12/18 12:18:55;;;;;;;30.90;11.30;;;;;;;;;;5068958;28;20449;-75
2023/12/18 12:21:21;;;;;;;37.93;13.33;;;;;;;;;;5068434;28;20462;-76
2023/12/18 12:23:48;;;;;;;34.60;13.40;;;;;;;;;;5068960;28;20486;-76
2023/12/18 12:26:14;;;;;;;29.37;12.30;;;;;;;;;;5068708;28;20431;-75
2023/12/18 12:28:42;;;;;;;31.23;12.30;;;;;;;;;;5069159;28;20793;-75
2023/12/18 12:31:08;;;;;;;20.37;11.20;;;;;;;;;;5068583;28;20419;-75
2023/12/18 12:33:41;;;;;;;32.83;11.30;;;;;;;;;;5068629;28;20415;-75
2023/12/18 12:36:07;;;;;;;24.13;11.90;;;;;;;;;;5068646;28;20905;-75
2023/12/18 12:38:35;;;;;;;29.93;12.03;;;;;;;;;;5067415;28;20411;-75
2023/12/18 12:41:01;;;;;;;24.00;10.77;;;;;;;;;;5068556;28;20554;-75
2023/12/18 12:43:29;;;;;;;21.00;11.37;;;;;;;;;;5062284;28;20424;-74
2023/12/18 12:45:55;;;;;;;26.40;11.80;;;;;;;;;;5071681;28;20442;-74
2023/12/18 12:48:23;;;;;;;31.70;12.70;;;;;;;;;;5067897;28;20404;-75
2023/12/18 12:50:49;;;;;;;23.40;11.70;;;;;;;;;;5066669;28;20424;-74
2023/12/18 12:53:15;;;;;;;28.70;12.10;;;;;;;;;;5067841;28;20829;-74
2023/12/18 12:55:41;;;;;;;21.67;11.17;;;;;;;;;;5068110;28;20473;-74
2023/12/18 12:58:08;;;;;;;26.03;11.53;;;;;;;;;;5067967;28;20425;-74
2023/12/18 13:00:34;;;;;;;21.03;10.87;;;;;;;;;;5079807;28;20526;-74
2023/12/18 13:03:01;;;;;;;27.93;10.77;;;;;;;;;;5088597;28;20412;-76
2023/12/18 13:05:27;;;;;;;28.23;12.37;;;;;;;;;;5084400;28;21106;-74
2023/12/18 13:07:55;;;;;;;20.20;10.13;;;;;;;;;;5066449;28;20978;-75
2023/12/18 13:10:24;;;;;;;16.20;10.60;;;;;;;;;;5053230;28;20411;-76
2023/12/18 13:12:50;;;;;;;22.50;10.83;;;;;;;;;;5054643;28;20440;-74
2023/12/18 13:15:17;;;;;;;18.73;11.80;;;;;;;;;;5054892;28;20489;-75
2023/12/18 13:17:43;;;;;;;14.70;9.27;;;;;;;;;;5054690;28;20408;-75
2023/12/18 13:20:09;;;;;;;20.00;10.73;;;;;;;;;;5054498;28;20800;-75
2023/12/18 13:22:35;;;;;;;22.07;11.37;;;;;;;;;;5054789;28;20778;-74
2023/12/18 13:25:01;;;;;;;18.77;9.80;;;;;;;;;;5054368;28;20428;-75
2023/12/18 13:27:27;;;;;;;23.73;10.40;;;;;;;;;;5054925;28;20408;-75
2023/12/18 13:29:53;;;;;;;23.10;11.63;;;;;;;;;;5053506;28;20408;-75
2023/12/18 13:32:24;;;;;;;20.97;10.47;;;;;;;;;;5055392;28;20416;-75
2023/12/18 13:34:50;;;;;;;21.70;11.20;;;;;;;;;;5059285;28;20436;-74
2023/12/18 13:37:16;;;;;;;21.07;10.37;;;;;;;;;;5067949;28;20412;-74
2023/12/18 13:39:42;;;;;;;23.60;11.30;;;;;;;;;;5067486;28;20471;-74
2023/12/18 13:42:08;;;;;;;21.03;10.27;;;;;;;;;;5062490;28;20462;-74
2023/12/18 13:44:34;;;;;;;28.83;12.23;;;;;;;;;;5063024;28;20491;-74
2023/12/18 13:47:01;;;;;;;18.70;10.23;;;;;;;;;;5062405;28;20419;-74
2023/12/18 13:49:26;;;;;;;27.10;10.87;;;;;;;;;;5066352;28;20796;-74
2023/12/18 13:51:53;;;;;;;25.50;10.90;;;;;;;;;;5062475;28;20456;-75
2023/12/18 13:54:21;;;;;;;24.20;10.70;;;;;;;;;;5053844;28;20783;-75
2023/12/18 13:56:47;;;;;;;23.70;11.70;;;;;;;;;;5053874;28;20412;-73
2023/12/18 13:59:13;;;;;;;21.17;10.53;;;;;;;;;;5053370;28;20798;-73
2023/12/18 14:01:40;;;;;;;24.20;12.23;;;;;;;;;;5053373;28;20542;-74
2023/12/18 14:04:06;;;;;;;24.93;11.50;;;;;;;;;;5051649;28;20428;-74
2023/12/18 14:06:32;;;;;;;25.20;11.73;;;;;;;;;;5036657;28;20409;-74
2023/12/18 14:08:58;;;;;;;21.63;11.50;;;;;;;;;;5034096;28;20772;-75
2023/12/18 14:11:24;;;;;;;32.27;12.03;;;;;;;;;;5033710;28;20409;-75
2023/12/18 14:13:50;;;;;;;22.40;12.20;;;;;;;;;;5034072;28;20574;-75
2023/12/18 14:16:16;;;;;;;26.00;10.67;;;;;;;;;;5034520;28;20966;-74
2023/12/18 14:18:42;;;;;;;25.90;12.23;;;;;;;;;;5033684;28;20405;-74
2023/12/18 14:21:08;;;;;;;25.73;11.90;;;;;;;;;;5033372;28;20830;-74
2023/12/18 14:23:34;;;;;;;19.97;10.87;;;;;;;;;;5046389;28;20950;-73
2023/12/18 14:26:00;;;;;;;23.73;12.23;;;;;;;;;;5053049;28;20435;-75
2023/12/18 14:28:26;;;;;;;28.20;11.37;;;;;;;;;;5051796;28;20412;-74
2023/12/18 14:30:52;;;;;;;24.40;12.87;;;;;;;;;;5042141;28;20436;-74
2023/12/18 14:33:18;;;;;;;17.90;11.00;;;;;;;;;;5053306;28;20478;-74
2023/12/18 14:35:49;;;;;;;21.87;11.33;;;;;;;;;;5052932;28;20434;-75
2023/12/18 14:38:19;;;;;;;21.57;11.77;;;;;;;;;;5053271;28;20408;-74
2023/12/18 14:40:45;;;;;;;19.10;12.20;;;;;;;;;;5069102;28;20463;-74
2023/12/18 14:43:11;;;;;;;22.27;11.47;;;;;;;;;;5065943;28;20401;-75
2023/12/18 14:45:37;;;;;;;19.10;12.47;;;;;;;;;;5059375;28;20526;-75
2023/12/18 14:48:04;;;;;;;21.30;12.17;;;;;;;;;;5059926;28;20412;-75
2023/12/18 14:50:32;;;;;;;18.30;11.80;;;;;;;;;;5038057;28;20471;-75
2023/12/18 14:52:58;;;;;;;19.17;12.57;;;;;;;;;;5053085;28;20412;-74
2023/12/18 14:55:25;;;;;;;19.73;12.03;;;;;;;;;;5051683;28;20442;-74
2023/12/18 14:57:51;;;;;;;20.90;11.43;;;;;;;;;;5051080;28;20508;-75
2023/12/18 15:00:17;;;;;;;26.70;12.60;;;;;;;;;;5048891;28;20495;-73
2023/12/18 15:02:43;;;;;;;21.07;12.80;;;;;;;;;;5052664;28;20943;-72
2023/12/18 15:05:09;;;;;;;19.83;11.43;;;;;;;;;;5052328;28;20435;-73
2023/12/18 15:07:35;;;;;;;20.20;12.60;;;;;;;;;;5051858;28;20419;-72
2023/12/18 15:10:01;;;;;;;21.70;12.30;;;;;;;;;;5052307;28;20787;-71
2023/12/18 15:12:27;;;;;;;20.60;11.83;;;;;;;;;;5052613;28;20479;-74
2023/12/18 15:14:53;;;;;;;20.27;13.30;;;;;;;;;;5053274;28;20436;-74
2023/12/18 15:17:19;;;;;;;23.20;13.30;;;;;;;;;;5053306;28;20416;-75
2023/12/18 15:19:45;;;;;;;25.17;12.23;;;;;;;;;;5052678;28;20515;-73
2023/12/18 15:22:11;;;;;;;21.17;11.40;;;;;;;;;;5051445;28;20466;-74
2023/12/18 15:24:38;;;;;;;22.27;11.83;;;;;;;;;;5052873;28;20439;-75
2023/12/18 15:27:07;;;;;;;20.27;11.43;;;;;;;;;;5038798;28;20421;-74
2023/12/18 15:29:34;;;;;;;24.53;12.97;;;;;;;;;;5032780;28;20604;-74
2023/12/18 15:32:00;;;;;;;18.40;11.00;;;;;;;;;;5032508;28;20549;-74
2023/12/18 15:34:26;;;;;;;20.43;12.00;;;;;;;;;;5033124;28;20928;-74
2023/12/18 15:36:52;;;;;;;21.40;11.60;;;;;;;;;;5032877;28;20405;-74
2023/12/18 15:39:18;;;;;;;20.10;12.03;;;;;;;;;;5033866;28;20405;-73
2023/12/18 15:41:44;;;;;;;20.87;12.23;;;;;;;;;;5050659;28;20537;-72
2023/12/18 15:44:10;;;;;;;21.67;12.20;;;;;;;;;;5050835;28;20408;-73
2023/12/18 15:46:36;;;;;;;20.97;12.90;;;;;;;;;;5053094;28;20497;-73
2023/12/18 15:49:02;;;;;;;21.23;12.07;;;;;;;;;;5052584;28;20450;-73
2023/12/18 15:51:28;;;;;;;25.20;13.80;;;;;;;;;;5052067;28;20775;-72
2023/12/18 15:53:54;;;;;;;21.07;12.00;;;;;;;;;;5053316;28;20451;-72
2023/12/18 15:56:20;;;;;;;19.83;12.63;;;;;;;;;;5051942;28;20906;-72
2023/12/18 15:58:46;;;;;;;29.80;15.40;;;;;;;;;;5049086;28;20733;-72
2023/12/18 16:01:12;;;;;;;25.30;13.17;;;;;;;;;;5031482;28;20465;-72
2023/12/18 16:03:39;;;;;;;28.33;14.20;;;;;;;;;;5032378;28;20412;-73
2023/12/18 16:06:05;;;;;;;23.57;13.60;;;;;;;;;;5033106;28;20429;-72
2023/12/18 16:08:31;;;;;;;24.30;13.50;;;;;;;;;;5032817;28;20463;-73
2023/12/18 16:10:57;;;;;;;24.20;12.87;;;;;;;;;;5031791;28;20410;-73
2023/12/18 16:13:23;;;;;;;25.67;13.10;;;;;;;;;;5031950;28;20504;-72
2023/12/18 16:15:49;;;;;;;27.00;15.20;;;;;;;;;;5043063;28;20463;-73
2023/12/18 16:18:15;;;;;;;30.27;16.23;;;;;;;;;;5038809;28;20449;-74
2023/12/18 16:20:41;;;;;;;29.40;16.03;;;;;;;;;;5031286;28;20449;-73
2023/12/18 16:23:07;;;;;;;29.60;14.83;;;;;;;;;;5031911;28;20413;-72
2023/12/18 16:25:32;;;;;;;38.27;15.77;;;;;;;;;;5031475;28;20425;-73
2023/12/18 16:27:58;;;;;;;40.67;15.20;;;;;;;;;;5031762;28;20421;-72
2023/12/18 16:30:24;;;;;;;25.03;14.50;;;;;;;;;;5031599;28;20417;-72
2023/12/18 16:32:50;;;;;;;29.00;15.10;;;;;;;;;;5030551;28;20432;-73
2023/12/18 16:35:16;;;;;;;28.73;15.47;;;;;;;;;;5031535;28;20437;-74
2023/12/18 16:37:42;;;;;;;30.53;16.03;;;;;;;;;;5032466;28;20451;-73
2023/12/18 16:40:11;;;;;;;30.10;14.30;;;;;;;;;;5035140;28;20467;-74
2023/12/18 16:42:37;;;;;;;33.93;14.63;;;;;;;;;;5050199;28;20408;-74
2023/12/18 16:45:03;;;;;;;27.07;13.67;;;;;;;;;;5044097;28;20951;-73
2023/12/18 16:47:30;;;;;;;39.83;16.43;;;;;;;;;;5052759;28;20415;-73
2023/12/18 16:49:56;;;;;;;32.60;14.90;;;;;;;;;;5054681;28;20404;-73
2023/12/18 16:52:22;;;;;;;28.80;15.10;;;;;;;;;;5054156;28;20478;-73
2023/12/18 16:54:48;;;;;;;33.70;15.40;;;;;;;;;;5054389;28;20767;-72
2023/12/18 16:57:14;;;;;;;27.00;15.10;;;;;;;;;;5054530;28;20503;-72
2023/12/18 16:59:40;;;;;;;31.77;16.27;;;;;;;;;;5054802;28;20486;-73
2023/12/18 17:02:06;;;;;;;25.23;14.00;;;;;;;;;;5054638;28;20834;-72
2023/12/18 17:04:32;;;;;;;27.00;14.47;;;;;;;;;;5055373;28;20489;-73
2023/12/18 17:06:59;;;;;;;40.00;17.40;;;;;;;;;;5055046;28;20412;-72
2023/12/18 17:09:25;;;;;;;36.63;18.87;;;;;;;;;;5054797;28;20466;-72
2023/12/18 17:11:51;;;;;;;30.10;18.93;;;;;;;;;;5036347;28;20425;-71
2023/12/18 17:14:17;;;;;;;47.03;20.33;;;;;;;;;;5034682;28;20440;-71
2023/12/18 17:16:43;;;;;;;35.23;17.43;;;;;;;;;;5048037;28;20416;-71
2023/12/18 17:19:09;;;;;;;42.43;19.00;;;;;;;;;;5054500;28;20443;-71
2023/12/18 17:21:36;;;;;;;37.33;20.43;;;;;;;;;;5054579;28;20459;-71
2023/12/18 17:24:03;;;;;;;40.83;20.50;;;;;;;;;;5054421;28;20441;-72
2023/12/18 17:26:29;;;;;;;37.03;19.60;;;;;;;;;;5054954;28;20495;-71
2023/12/18 17:28:57;;;;;;;45.73;21.50;;;;;;;;;;5048750;28;20858;-71
2023/12/18 17:31:29;;;;;;;33.70;18.30;;;;;;;;;;5047744;28;20423;-72
2023/12/18 17:33:55;;;;;;;33.50;18.40;;;;;;;;;;5056897;28;20416;-74
2023/12/18 17:36:21;;;;;;;44.93;18.53;;;;;;;;;;5055553;28;20440;-70
2023/12/18 17:38:47;;;;;;;37.57;20.00;;;;;;;;;;5054503;28;20774;-73
2023/12/18 17:41:13;;;;;;;40.50;19.50;;;;;;;;;;5054120;28;20818;-73
2023/12/18 17:43:39;;;;;;;44.90;23.33;;;;;;;;;;5053991;28;20953;-71
2023/12/18 17:46:04;;;;;;;44.83;21.07;;;;;;;;;;5053712;28;20933;-71
2023/12/18 17:48:30;;;;;;;34.20;19.93;;;;;;;;;;5039877;28;20413;-72
2023/12/18 17:51:00;;;;;;;40.50;19.20;;;;;;;;;;5033956;28;20503;-72
2023/12/18 17:53:26;;;;;;;39.13;20.90;;;;;;;;;;5034055;28;20417;-73
2023/12/18 17:55:52;;;;;;;39.67;21.83;;;;;;;;;;5051165;28;20919;-74
2023/12/18 17:58:18;;;;;;;41.53;19.03;;;;;;;;;;5053793;28;20499;-73
2023/12/18 18:00:44;;;;;;;36.70;19.70;;;;;;;;;;5052688;28;20471;-72
2023/12/18 18:03:12;;;;;;;44.47;21.37;;;;;;;;;;5034005;28;20410;-74
2023/12/18 18:05:38;;;;;;;37.83;18.13;;;;;;;;;;5033958;28;20428;-73
2023/12/18 18:08:04;;;;;;;32.47;19.60;;;;;;;;;;5052084;28;20515;-72
2023/12/18 18:10:30;;;;;;;42.90;23.43;;;;;;;;;;5053760;28;20982;-72
2023/12/18 18:12:56;;;;;;;35.73;18.53;;;;;;;;;;5039194;28;20696;-71
2023/12/18 18:15:22;;;;;;;34.23;19.70;;;;;;;;;;5036602;28;20487;-75
2023/12/18 18:17:48;;;;;;;42.70;20.07;;;;;;;;;;5053738;28;20431;-76
2023/12/18 18:20:14;;;;;;;46.57;22.03;;;;;;;;;;5047458;28;20547;-74
2023/12/18 18:22:40;;;;;;;40.00;21.80;;;;;;;;;;5033847;28;20420;-75
2023/12/18 18:25:07;;;;;;;35.50;18.57;;;;;;;;;;5033492;28;20429;-75
2023/12/18 18:27:32;;;;;;;32.77;19.73;;;;;;;;;;5033746;28;20877;-74
2023/12/18 18:29:58;;;;;;;46.37;23.80;;;;;;;;;;5033449;28;20409;-74
2023/12/18 18:32:24;;;;;;;43.40;21.93;;;;;;;;;;5033250;28;20413;-74
2023/12/18 18:34:50;;;;;;;35.00;19.77;;;;;;;;;;5033108;28;20535;-75
2023/12/18 18:37:16;;;;;;;46.13;22.60;;;;;;;;;;5033316;28;20897;-76
2023/12/18 18:39:43;;;;;;;44.50;23.17;;;;;;;;;;5033177;28;21030;-75
2023/12/18 18:42:09;;;;;;;39.47;21.53;;;;;;;;;;5032912;28;20409;-75
2023/12/18 18:44:35;;;;;;;45.17;21.10;;;;;;;;;;5033098;28;20943;-75
2023/12/18 18:47:01;;;;;;;41.47;20.73;;;;;;;;;;5049266;28;20439;-75
2023/12/18 18:49:28;;;;;;;39.23;21.33;;;;;;;;;;5063339;28;20418;-75
2023/12/18 18:51:54;;;;;;;41.73;22.50;;;;;;;;;;5071252;28;20411;-74
2023/12/18 18:54:20;;;;;;;42.33;21.27;;;;;;;;;;5072430;28;20493;-75
2023/12/18 18:56:46;;;;;;;39.03;20.13;;;;;;;;;;5053374;28;20416;-75
2023/12/18 18:59:13;;;;;;;56.70;20.20;;;;;;;;;;5052856;28;20495;-75
2023/12/18 19:01:38;;;;;;;39.30;19.93;;;;;;;;;;5052330;28;21058;-73
2023/12/18 19:04:05;;;;;;;54.77;21.87;;;;;;;;;;5041803;28;20445;-73
2023/12/18 19:06:31;;;;;;;46.23;22.23;;;;;;;;;;5050692;28;20962;-72
2023/12/18 19:08:57;;;;;;;53.77;26.67;;;;;;;;;;5062891;28;20508;-75
2023/12/18 19:11:23;;;;;;;39.17;22.90;;;;;;;;;;5038798;28;20418;-77
2023/12/18 19:13:49;;;;;;;51.97;24.10;;;;;;;;;;5033054;28;20405;-76
2023/12/18 19:16:15;;;;;;;37.80;21.10;;;;;;;;;;5049251;28;20443;-77
2023/12/18 19:18:41;;;;;;;42.63;24.10;;;;;;;;;;5052658;28;20427;-77
2023/12/18 19:21:07;;;;;;;50.13;23.30;;;;;;;;;;5052591;28;20970;-76
2023/12/18 19:23:33;;;;;;;44.40;23.63;;;;;;;;;;5052729;28;20435;-77
2023/12/18 19:25:59;;;;;;;48.93;24.50;;;;;;;;;;5051014;28;20617;-77
2023/12/18 19:28:25;;;;;;;57.70;26.37;;;;;;;;;;5052460;28;20447;-77
2023/12/18 19:30:51;;;;;;;62.40;24.67;;;;;;;;;;5052369;28;20466;-77
2023/12/18 19:33:18;;;;;;;57.77;29.87;;;;;;;;;;5045635;28;20417;-76
2023/12/18 19:35:46;;;;;;;49.97;26.00;;;;;;;;;;5030930;28;20437;-77
2023/12/18 19:38:12;;;;;;;47.60;25.97;;;;;;;;;;5032234;28;20424;-76
2023/12/18 19:40:39;;;;;;;45.73;24.63;;;;;;;;;;5030932;28;20457;-76
2023/12/18 19:43:08;;;;;;;61.73;29.30;;;;;;;;;;5039315;28;20558;-71
2023/12/18 19:45:35;;;;;;;49.97;27.07;;;;;;;;;;5052273;28;20432;-76
2023/12/18 19:48:01;;;;;;;55.83;28.70;;;;;;;;;;5053171;28;20416;-77
2023/12/18 19:50:27;;;;;;;54.57;26.77;;;;;;;;;;5052039;28;20416;-76
2023/12/18 19:52:53;;;;;;;61.23;29.90;;;;;;;;;;5052023;28;20779;-76
2023/12/18 19:55:19;;;;;;;48.77;27.37;;;;;;;;;;5051868;28;20835;-75
2023/12/18 19:57:45;;;;;;;63.53;32.13;;;;;;;;;;5052039;28;20454;-76
2023/12/18 20:00:14;;;;;;;58.30;29.87;;;;;;;;;;5051567;28;20486;-75
2023/12/18 20:02:40;;;;;;;49.63;26.50;;;;;;;;;;5052114;28;20815;-75
2023/12/18 20:05:06;;;;;;;40.90;23.63;;;;;;;;;;5051995;28;20432;-76
2023/12/18 20:07:32;;;;;;;56.03;27.70;;;;;;;;;;5051026;28;20423;-76
2023/12/18 20:09:58;;;;;;;52.97;26.27;;;;;;;;;;5050189;28;20915;-76
2023/12/18 20:12:24;;;;;;;57.90;26.73;;;;;;;;;;5051678;28;20814;-75
2023/12/18 20:14:50;;;;;;;54.70;25.70;;;;;;;;;;5051705;28;20527;-76